LNG Dream — C6VO5 — position and weather

sailwx.info

Track history (hours):
 
Tides and Currents Weather Stations Pressure Air Temp Water Temp Dewpoint Dewpoint Depression Visibility Wind Speed Wind Dir Waves Ship Positions

LNG Dream

Last reported at 2016-Sep-17 09:23 UTC. Time now 2016-Sep-29 01:39 UTC.
Position S 19°32' E 117°14'.
Warning: this ship's position is 11 days out of date.

Length 289.6 m; beam 49 m.

Type: Ship (hazmat cat A). MMSI: 309065000.

Date/timePositionNaut miles runAvg speedWind from/ knotsBaromVisibWave heightAir tempDewpointWater temp
2016-Sep-17 09:23S 19°32' E 117°14'1315.0
2016-Sep-17 08:32S 19°43' E 117°07'5213.1
2016-Sep-17 04:33S 20°30' E 116°44'5 0.2
2016-Sep-16 03:20S 20°35' E 116°46'4 5.3
2016-Sep-16 02:33S 20°32' E 116°43'14 0.6
2016-Sep-15 01:24S 20°18' E 116°42'6 0.5
2016-Sep-14 13:32S 20°23' E 116°39'0 0.1
2016-Sep-14 12:32S 20°23' E 116°39'0 0.1
2016-Sep-14 10:14S 20°23' E 116°39'2 3.2
2016-Sep-14 09:33S 20°21' E 116°41'7 7.1
2016-Sep-14 08:31S 20°15' E 116°45'9 9.7
2016-Sep-14 07:33S 20°06' E 116°48'76 8.4
2016-Sep-13 22:31S 19°02' E 117°32'5312.6
2016-Sep-13 18:19S 18°16' E 117°59'8212.1
2016-Sep-13 11:33S 16°57' E 118°24'6011.5
2016-Sep-13 06:21S 16°17' E 119°11'10014.8
2016-Sep-12 23:33S 14°50' E 120°02'  
Track history (hours):
 
Tides and Currents Weather Stations Pressure Air Temp Water Temp Dewpoint Dewpoint Depression Visibility Wind Speed Wind Dir Waves Ship Positions

LNG Dream

Last reported at 2016-Sep-17 09:23 UTC. Time now 2016-Sep-29 01:39 UTC.
Position S 19°32' E 117°14'.
Warning: this ship's position is 11 days out of date.

Length 289.6 m; beam 49 m.

Type: Ship (hazmat cat A). MMSI: 309065000.

Date/timePositionNaut miles runAvg speedWind from/ knotsBaromVisibWave heightAir tempDewpointWater temp
2016-Sep-17 09:23S 19°32' E 117°14'1315.0
2016-Sep-17 08:32S 19°43' E 117°07'5213.1
2016-Sep-17 04:33S 20°30' E 116°44'5 0.2
2016-Sep-16 03:20S 20°35' E 116°46'4 5.3
2016-Sep-16 02:33S 20°32' E 116°43'14 0.6
2016-Sep-15 01:24S 20°18' E 116°42'6 0.5
2016-Sep-14 13:32S 20°23' E 116°39'0 0.1
2016-Sep-14 12:32S 20°23' E 116°39'0 0.1
2016-Sep-14 10:14S 20°23' E 116°39'2 3.2
2016-Sep-14 09:33S 20°21' E 116°41'7 7.1
2016-Sep-14 08:31S 20°15' E 116°45'9 9.7
2016-Sep-14 07:33S 20°06' E 116°48'76 8.4
2016-Sep-13 22:31S 19°02' E 117°32'5312.6
2016-Sep-13 18:19S 18°16' E 117°59'8212.1
2016-Sep-13 11:33S 16°57' E 118°24'6011.5
2016-Sep-13 06:21S 16°17' E 119°11'10014.8
2016-Sep-12 23:33S 14°50' E 120°02'  

Dump ship's entire track history